^^
Refsnesbakken Borettslag Station Historical Data
 
Daily Summary for May 10, 2026 Units:  Metric    English   Both
Daily Weekly Monthly Yearly
  Current: High: Low: Average:
Temperature: 8 °C 8.9 °C 8 °C 8.6 °C
Dew Point: 4.9 °C 5.3 °C 4.6 °C 4.9 °C
Humidity: 80.7% 80.7% 74% 77%
Wind Speed: 5.6km/h 7.4km/h 5.6km/h 6.2km/h
Wind Gust: 5.6km/h 8km/h - -
WindWSW - - South
Pressure: 1018.8 hPa 1020.6 hPa 1018.8 hPa -
Precipitation: 0.0 mm      
 
 
Tabular Data for May 10, 2026
Time Temperature Dew Point Pressure Wind Wind Speed Wind Gust Humidity Rainfall Rate (Hourly) solar
00:09 8.9 °C 4.6 °C 1020.6 hPa South 5.6 km/h 5.6 km/h 74.2% 0.0 mm 0 W/m2
00:14 8.9 °C 4.6 °C 1020.6 hPa South 5.6 km/h 5.6 km/h 74% 0.0 mm 0 W/m2
00:19 8.9 °C 4.6 °C 1020.6 hPa South 5.6 km/h 5.6 km/h 74.1% 0.0 mm 0 W/m2
00:24 8.9 °C 4.7 °C 1020.6 hPa South 5.6 km/h 5.6 km/h 74.8% 0.0 mm 0 W/m2
00:29 8.9 °C 4.7 °C 1020.6 hPa South 5.6 km/h 5.6 km/h 75% 0.0 mm 0 W/m2
00:34 8.8 °C 4.7 °C 1020.5 hPa SE 5.6 km/h 5.6 km/h 75% 0.0 mm 0 W/m2
00:39 8.8 °C 4.7 °C 1020.4 hPa SE 5.6 km/h 5.6 km/h 75% 0.0 mm 0 W/m2
00:44 8.8 °C 4.7 °C 1020.3 hPa SE 5.6 km/h 5.6 km/h 75% 0.0 mm 0 W/m2
00:49 8.8 °C 4.7 °C 1020.3 hPa SE 5.6 km/h 5.6 km/h 75.6% 0.0 mm 0 W/m2
00:54 8.8 °C 4.8 °C 1020.2 hPa SE 5.6 km/h 5.6 km/h 76% 0.0 mm 0 W/m2
00:59 8.8 °C 4.8 °C 1020.2 hPa SE 5.6 km/h 5.6 km/h 76% 0.0 mm 0 W/m2
01:04 8.7 °C 4.7 °C 1020.1 hPa SE 5.6 km/h 5.6 km/h 76% 0.0 mm 0 W/m2
01:09 8.7 °C 4.7 °C 1020.1 hPa SE 5.6 km/h 5.6 km/h 76.2% 0.0 mm 0 W/m2
01:14 8.7 °C 4.8 °C 1020.0 hPa SE 5.6 km/h 5.6 km/h 77% 0.0 mm 0 W/m2
01:19 8.7 °C 4.8 °C 1019.9 hPa SE 5.6 km/h 5.6 km/h 77% 0.0 mm 0 W/m2
01:24 8.7 °C 4.8 °C 1019.9 hPa SE 5.6 km/h 5.6 km/h 77% 0.0 mm 0 W/m2
01:29 8.6 °C 4.8 °C 1019.8 hPa SE 5.6 km/h 5.6 km/h 77% 0.0 mm 0 W/m2
01:34 8.6 °C 4.8 °C 1019.7 hPa SE 7 km/h 7.4 km/h 77.2% 0.0 mm 0 W/m2
01:39 8.6 °C 5 °C 1019.7 hPa SSE 7.4 km/h 8 km/h 78% 0.0 mm 0 W/m2
01:44 8.6 °C 5 °C 1019.7 hPa SSE 7.4 km/h 8 km/h 78% 0.0 mm 0 W/m2
01:49 8.6 °C 5 °C 1019.7 hPa SSE 7.4 km/h 8 km/h 78% 0.0 mm 0 W/m2
01:54 8.7 °C 5.1 °C 1019.7 hPa SSE 7.4 km/h 8 km/h 78% 0.0 mm 0 W/m2
01:59 8.7 °C 5.1 °C 1019.7 hPa SSE 7.4 km/h 8 km/h 78% 0.0 mm 0 W/m2
02:04 8.7 °C 5.1 °C 1019.7 hPa South 7.4 km/h 8 km/h 78% 0.0 mm 0 W/m2
02:09 8.8 °C 5.2 °C 1019.6 hPa SSW 7.4 km/h 8 km/h 78% 0.0 mm 0 W/m2
02:14 8.8 °C 5.3 °C 1019.6 hPa SSW 7.4 km/h 8 km/h 78.5% 0.0 mm 0 W/m2
02:19 8.8 °C 5.3 °C 1019.5 hPa SSW 7.4 km/h 8 km/h 79% 0.0 mm 0 W/m2
02:24 8.8 °C 5.3 °C 1019.5 hPa SSW 7.4 km/h 8 km/h 79% 0.0 mm 0 W/m2
02:29 8.8 °C 5.3 °C 1019.5 hPa SSW 7.4 km/h 8 km/h 79% 0.0 mm 0 W/m2
02:34 8.7 °C 5.3 °C 1019.3 hPa South 6.7 km/h 8 km/h 79% 0.0 mm 0 W/m2
02:39 8.7 °C 5.3 °C 1019.2 hPa South 5.6 km/h 8 km/h 79% 0.0 mm 0 W/m2
02:44 8.6 °C 5.2 °C 1019.1 hPa South 5.6 km/h 5.6 km/h 79% 0.0 mm 0 W/m2
02:49 8.5 °C 5.1 °C 1019.1 hPa South 5.6 km/h 5.6 km/h 79% 0.0 mm 0 W/m2
02:54 8.5 °C 5 °C 1019.0 hPa South 5.6 km/h 5.6 km/h 79% 0.0 mm 0 W/m2
02:59 8.4 °C 5 °C 1019.0 hPa South 5.6 km/h 5.6 km/h 79.5% 0.0 mm 0 W/m2
03:04 8.3 °C 5 °C 1018.9 hPa SW 5.6 km/h 5.6 km/h 79.7% 0.0 mm 0 W/m2
03:09 8.2 °C 4.8 °C 1018.9 hPa WSW 5.6 km/h 5.6 km/h 79.4% 0.0 mm 0 W/m2
03:14 8.1 °C 4.9 °C 1018.9 hPa WSW 5.6 km/h 5.6 km/h 80% 0.0 mm 0 W/m2
03:19 8 °C 4.8 °C 1018.9 hPa WSW 5.6 km/h 5.6 km/h 80% 0.0 mm 0 W/m2
03:24 8 °C 4.9 °C 1018.8 hPa WSW 5.6 km/h 5.6 km/h 80.7% 0.0 mm 0 W/m2
Refsnesbakken, Moss, Norway
Compliments of Weather Underground - 2 mb